Aeroporto :
LOGIN :

Iscrizione | Disclaimer

   EN    FR    IT 

 










Sommario :    VFR   VFR Marginale   IFR   IFR Intensivo   IFR Molto Intensivo
Visibilità : 
Base nubi : 
>= 8 km
>= 3000ft
5 / 8 km
1000 / 3000 ft
1500m / 5 km
500 / 1000 ft
800 / 1500m
200 / 500 ft
< 800m
< 200 ft
Simboli :   Temporali  Nebbia  Neve Forte  Precipitazioni Forti  Vento > 20 kt
SIGMETs :   Varie  Temporali  Ghiacco  Turbolenza  Onda orograficha  Ceneri Vulcaniche






- Altitudine del aeroporto : 29 ft
- Codice IATA : SVG


ENZV - Sola

ULTIMO METAR :
  • 202250Z 26008KT 9999 FEW022 SCT068CB 05/00 Q0994

METARs OBSOLETI :
  • 202220Z 28017KT 9999 FEW025 SCT032 05/01 Q0994
  • 202150Z 27017KT 9999 FEW036 05/M00 Q0993
  • 202120Z 27017KT 9999 FEW020 SCT050 06/M00 Q0993
  • 202050Z 26016KT 9999 SCT030 SCT060 06/M00 Q0992
  • 202020Z 27017KT 9999 FEW030 SCT060 06/M00 Q0992 TEMPO SHRA

AMD TAF ENZV
Valido dal 20 a 18 ore il 21 a 18 ore UTC


2018/2118 28015KT 9999 -SHRA FEW015TCU BKN030
TEMPO 2018/2107 4000 SHRAGS BKN012CB
BECMG 2106/2109 22018KT
BECMG 2109/2111 21025G40KT -RA
TEMPO 2111/2118 4000 RADZ BKN012



MetMap, La meteo Aeronautica in un colpo d'occhio ! - Copyright ORBIFLY Dicembre 2007 - Disclaimer

ORBIFLY MET'MAP TEAM :

Programmazione e sviluppo : Alexandra Zaïnal
Concezione : Baudouin d'Aumeries
Aiuto per la programmazione : Marc-Olivier Méhu
Supporto tecnico e logistico : Manuel Goepfert
Aiuto per la traduzione : Arnaldo La Scala

Contatto : metmap@orbifly.com




FONTI E CREDITI :

   NOAA